createdAt,value
2022-08-24T00:01:20.641Z,18.90
2022-08-24T00:03:48.470Z,18.80
2022-08-24T00:06:23.930Z,18.80
2022-08-24T00:08:53.414Z,18.80
2022-08-24T00:11:21.402Z,18.70
2022-08-24T00:13:49.143Z,18.70
2022-08-24T00:16:18.105Z,18.60
2022-08-24T00:18:45.845Z,18.50
2022-08-24T00:21:13.467Z,18.50
2022-08-24T00:23:40.973Z,18.50
2022-08-24T00:26:09.281Z,18.50
2022-08-24T00:28:37.241Z,18.40
2022-08-24T00:31:05.349Z,18.40
2022-08-24T00:33:35.390Z,18.40
2022-08-24T00:36:04.889Z,18.30
2022-08-24T00:38:35.667Z,18.30
2022-08-24T00:41:03.764Z,18.30
2022-08-24T00:43:31.715Z,18.20
2022-08-24T00:46:14.632Z,18.20
2022-08-24T00:48:46.452Z,18.20
2022-08-24T00:51:27.617Z,18.10
2022-08-24T00:54:06.423Z,18.10
2022-08-24T00:56:42.701Z,18.10
2022-08-24T00:59:23.494Z,18.00
2022-08-24T01:01:54.989Z,17.90
2022-08-24T01:04:35.872Z,17.90
2022-08-24T01:07:03.538Z,17.80
2022-08-24T01:09:30.567Z,17.80
2022-08-24T01:11:58.678Z,17.80
2022-08-24T01:14:26.254Z,17.90
2022-08-24T01:17:11.944Z,17.90
2022-08-24T01:19:50.690Z,17.90
2022-08-24T01:22:58.945Z,17.90
2022-08-24T01:25:28.691Z,18.00
2022-08-24T01:28:00.835Z,18.00
2022-08-24T01:30:36.768Z,18.00
2022-08-24T01:33:08.205Z,18.00
2022-08-24T01:35:38.349Z,18.00
2022-08-24T01:38:09.621Z,18.00
2022-08-24T01:40:47.274Z,18.00
2022-08-24T01:43:15.195Z,17.90
2022-08-24T01:45:43.155Z,17.90
2022-08-24T01:48:15.074Z,17.90
2022-08-24T01:50:49.602Z,17.90
2022-08-24T01:53:16.910Z,17.80
2022-08-24T01:55:44.188Z,17.80
2022-08-24T01:58:11.527Z,17.80
2022-08-24T02:00:39.173Z,17.80
2022-08-24T02:03:06.662Z,17.80
2022-08-24T02:05:41.934Z,17.70
2022-08-24T02:08:09.000Z,17.70
2022-08-24T02:10:35.916Z,17.70
2022-08-24T02:13:04.078Z,17.70
2022-08-24T02:15:39.954Z,17.70
2022-08-24T02:18:15.615Z,17.70
2022-08-24T02:20:45.669Z,17.70
2022-08-24T02:23:14.596Z,17.70
2022-08-24T02:25:41.663Z,17.70
2022-08-24T02:28:08.564Z,17.70
2022-08-24T02:30:35.689Z,17.70
2022-08-24T02:33:02.873Z,17.60
2022-08-24T02:35:30.985Z,17.60
2022-08-24T02:37:58.682Z,17.60
2022-08-24T02:40:26.160Z,17.60
2022-08-24T02:42:53.270Z,17.50
2022-08-24T02:45:20.426Z,17.60
2022-08-24T02:47:47.916Z,17.60
2022-08-24T02:50:17.740Z,17.50
2022-08-24T02:52:45.492Z,17.50
2022-08-24T02:55:20.144Z,17.40
2022-08-24T02:57:48.525Z,17.50
2022-08-24T03:00:19.005Z,17.50
2022-08-24T03:02:46.077Z,17.50
2022-08-24T03:05:14.402Z,17.50
2022-08-24T03:07:41.416Z,17.50
2022-08-24T03:10:09.016Z,17.50
2022-08-24T03:12:35.976Z,17.50
2022-08-24T03:15:06.454Z,17.40
2022-08-24T03:17:33.795Z,17.40
2022-08-24T03:20:05.256Z,17.40
2022-08-24T03:22:32.343Z,17.30
2022-08-24T03:24:59.377Z,17.30
2022-08-24T03:27:26.704Z,17.30
2022-08-24T03:29:53.605Z,17.20
2022-08-24T03:32:21.465Z,17.20
2022-08-24T03:34:48.440Z,17.10
2022-08-24T03:37:16.286Z,17.10
2022-08-24T03:39:43.316Z,17.10
2022-08-24T03:42:10.433Z,17.10
2022-08-24T03:44:37.387Z,17.10
2022-08-24T03:47:04.472Z,17.10
2022-08-24T03:49:31.393Z,17.00
2022-08-24T03:51:59.020Z,17.00
2022-08-24T03:54:26.179Z,17.00
2022-08-24T03:56:53.267Z,17.10
2022-08-24T03:59:20.330Z,17.00
2022-08-24T04:01:47.756Z,17.00
2022-08-24T04:04:15.160Z,17.00
2022-08-24T04:06:44.493Z,16.90
2022-08-24T04:09:12.029Z,16.80
2022-08-24T04:11:41.305Z,16.80
2022-08-24T04:14:08.771Z,16.80
2022-08-24T04:16:53.473Z,16.70
2022-08-24T04:19:25.748Z,16.70
2022-08-24T04:21:53.749Z,16.70
2022-08-24T04:24:20.763Z,16.60
2022-08-24T04:26:50.517Z,16.60
2022-08-24T04:29:20.427Z,16.60
2022-08-24T04:31:48.073Z,16.70
2022-08-24T04:34:17.433Z,16.70
2022-08-24T04:36:46.281Z,16.70
2022-08-24T04:39:13.676Z,16.70
2022-08-24T04:41:42.577Z,16.70
2022-08-24T04:44:09.647Z,16.70
2022-08-24T04:46:36.593Z,16.70
2022-08-24T04:49:04.432Z,16.70
2022-08-24T04:51:36.187Z,16.70
2022-08-24T04:54:05.094Z,16.70
2022-08-24T04:56:32.101Z,16.70
2022-08-24T04:58:59.029Z,16.70
2022-08-24T05:01:28.593Z,16.70
2022-08-24T05:03:56.588Z,16.70
2022-08-24T05:06:27.570Z,16.70
2022-08-24T05:08:54.855Z,16.70
2022-08-24T05:11:22.976Z,16.70
2022-08-24T05:13:56.024Z,16.70
2022-08-24T05:16:23.570Z,16.70
2022-08-24T05:18:50.672Z,16.80
2022-08-24T05:21:21.689Z,16.90
2022-08-24T05:23:48.863Z,16.90
2022-08-24T05:26:25.435Z,17.00
2022-08-24T05:29:02.041Z,17.10
2022-08-24T05:31:32.599Z,17.20
2022-08-24T05:34:01.515Z,17.30
2022-08-24T05:36:35.614Z,17.40
2022-08-24T05:39:11.545Z,17.50
2022-08-24T05:41:43.884Z,17.60
2022-08-24T05:44:16.974Z,17.60
2022-08-24T05:46:45.195Z,17.70
2022-08-24T05:49:12.433Z,17.80
2022-08-24T05:51:40.193Z,17.90
2022-08-24T05:54:07.235Z,18.00
2022-08-24T05:56:34.186Z,18.10
2022-08-24T05:59:01.653Z,18.20
2022-08-24T06:01:28.855Z,18.40
2022-08-24T06:03:58.147Z,18.50
2022-08-24T06:06:26.758Z,18.70
2022-08-24T06:08:58.068Z,18.80
2022-08-24T06:11:30.448Z,18.90
2022-08-24T06:14:12.117Z,19.10
2022-08-24T06:16:45.151Z,19.20
2022-08-24T06:19:15.889Z,19.30
2022-08-24T06:21:44.542Z,19.50
2022-08-24T06:24:11.499Z,19.70
2022-08-24T06:26:56.821Z,19.80
2022-08-24T06:29:23.761Z,20.00
2022-08-24T06:31:54.271Z,20.10
2022-08-24T06:34:25.978Z,20.20
2022-08-24T06:36:53.011Z,20.30
2022-08-24T06:39:21.055Z,20.50
2022-08-24T06:41:48.043Z,20.70
2022-08-24T06:44:14.975Z,20.80
2022-08-24T06:46:41.970Z,21.00
2022-08-24T06:49:09.061Z,21.10
2022-08-24T06:51:35.958Z,21.30
2022-08-24T06:54:02.912Z,21.50
2022-08-24T06:56:29.867Z,21.80
2022-08-24T06:58:56.878Z,22.10
2022-08-24T07:01:26.996Z,22.40
2022-08-24T07:03:54.689Z,22.90
2022-08-24T07:06:23.553Z,23.70
2022-08-24T07:08:51.660Z,24.70
2022-08-24T07:11:21.966Z,26.00
2022-08-24T07:13:50.049Z,27.20
2022-08-24T07:16:22.149Z,27.80
2022-08-24T07:18:50.625Z,28.10
2022-08-24T07:21:19.691Z,28.80
2022-08-24T07:23:49.560Z,29.60
2022-08-24T07:26:23.349Z,29.60
2022-08-24T07:29:01.365Z,28.90
2022-08-24T07:31:32.056Z,27.80
2022-08-24T07:34:02.084Z,26.90
2022-08-24T07:36:29.218Z,26.10
2022-08-24T07:38:57.362Z,25.60
2022-08-24T07:44:15.701Z,25.20
2022-08-24T07:46:43.752Z,25.30
2022-08-24T07:49:29.469Z,26.00
2022-08-24T07:51:59.358Z,27.10
2022-08-24T07:54:28.709Z,28.50
2022-08-24T07:56:56.426Z,29.60
2022-08-24T07:59:23.407Z,30.50
2022-08-24T08:01:50.602Z,31.00
2022-08-24T08:04:21.932Z,31.20
2022-08-24T08:06:49.319Z,31.40
2022-08-24T08:09:16.570Z,31.70
2022-08-24T08:11:43.575Z,31.70
2022-08-24T08:14:11.040Z,31.70
2022-08-24T08:16:40.809Z,31.60
2022-08-24T08:19:11.522Z,31.60
2022-08-24T08:22:06.566Z,31.30
2022-08-24T08:24:33.863Z,31.40
2022-08-24T08:27:01.324Z,31.20
2022-08-24T08:29:31.737Z,31.10
2022-08-24T08:31:59.389Z,31.00
2022-08-24T08:34:26.886Z,30.80
2022-08-24T08:36:54.375Z,30.70
2022-08-24T08:39:22.399Z,30.70
2022-08-24T08:42:34.234Z,30.70
2022-08-24T08:45:56.257Z,30.30
2022-08-24T08:48:47.523Z,30.20
2022-08-24T08:51:44.781Z,30.00
2022-08-24T08:54:28.826Z,30.00
2022-08-24T08:57:20.036Z,29.80
2022-08-24T09:00:07.090Z,29.70
2022-08-24T09:03:16.789Z,29.60
2022-08-24T09:06:46.509Z,29.50
2022-08-24T09:09:53.813Z,29.50
2022-08-24T09:13:04.907Z,29.60
2022-08-24T09:15:59.168Z,29.70
2022-08-24T09:18:37.951Z,29.80
2022-08-24T09:21:23.245Z,29.80
2022-08-24T09:24:15.158Z,30.00
2022-08-24T09:26:56.568Z,30.00
2022-08-24T09:29:46.111Z,29.80
2022-08-24T09:32:34.771Z,29.80
2022-08-24T09:35:03.925Z,29.70
2022-08-24T09:38:22.163Z,29.90
2022-08-24T09:41:32.345Z,30.10
2022-08-24T09:44:52.244Z,30.40
2022-08-24T09:47:56.919Z,30.60
2022-08-24T09:51:12.854Z,30.70
2022-08-24T09:54:18.141Z,30.80
2022-08-24T09:57:19.974Z,31.00
2022-08-24T10:00:16.082Z,31.20
2022-08-24T10:03:36.098Z,31.50
2022-08-24T10:06:34.256Z,31.50
2022-08-24T10:09:11.342Z,31.90
2022-08-24T10:11:50.094Z,32.10
2022-08-24T10:15:19.946Z,32.30
2022-08-24T10:18:34.708Z,32.30
2022-08-24T10:21:26.926Z,32.20
2022-08-24T10:24:29.829Z,32.30
2022-08-24T10:27:46.619Z,32.60
2022-08-24T10:30:48.600Z,32.70
2022-08-24T10:33:35.848Z,32.60
2022-08-24T10:36:21.332Z,32.70
2022-08-24T10:39:22.097Z,32.70
2022-08-24T10:42:46.644Z,32.90
2022-08-24T10:46:10.187Z,32.90
2022-08-24T10:49:23.395Z,32.70
2022-08-24T10:52:30.665Z,32.60
2022-08-24T10:55:27.091Z,32.80
2022-08-24T10:58:14.894Z,33.20
2022-08-24T11:00:43.038Z,33.40
2022-08-24T11:03:28.261Z,33.60
2022-08-24T11:05:57.537Z,33.60
2022-08-24T11:08:28.624Z,33.70
2022-08-24T11:11:29.674Z,33.70
2022-08-24T11:14:25.111Z,33.90
2022-08-24T11:16:57.496Z,34.20
2022-08-24T11:19:27.469Z,34.50
2022-08-24T11:21:58.742Z,34.70
2022-08-24T11:24:30.077Z,34.90
2022-08-24T11:26:59.297Z,34.40
2022-08-24T11:29:52.119Z,32.90
2022-08-24T11:32:52.363Z,32.70
2022-08-24T11:35:36.443Z,33.00
2022-08-24T11:38:06.153Z,33.20
2022-08-24T11:40:41.316Z,33.20
2022-08-24T11:43:26.520Z,33.30
2022-08-24T11:46:18.253Z,33.70
2022-08-24T11:49:14.766Z,33.80
2022-08-24T11:51:50.401Z,33.50
2022-08-24T11:54:37.930Z,33.20
2022-08-24T11:57:09.513Z,32.70
2022-08-24T11:59:54.332Z,32.50
2022-08-24T12:03:00.562Z,32.50
2022-08-24T12:05:49.825Z,33.10
2022-08-24T12:09:06.255Z,33.20
2022-08-24T12:12:15.026Z,32.80
2022-08-24T12:14:44.702Z,32.20
2022-08-24T12:17:37.877Z,32.00
2022-08-24T12:20:32.010Z,31.80
2022-08-24T12:23:25.484Z,31.60
2022-08-24T12:26:05.231Z,31.60
2022-08-24T12:29:15.153Z,31.60
2022-08-24T12:32:05.410Z,31.60
2022-08-24T12:34:43.534Z,31.40
2022-08-24T12:37:32.441Z,31.20
2022-08-24T12:40:22.701Z,30.90
2022-08-24T12:42:56.676Z,30.80
2022-08-24T12:45:25.930Z,30.80
2022-08-24T12:50:29.093Z,30.70
2022-08-24T12:53:34.829Z,30.50
2022-08-24T12:56:29.625Z,30.40
2022-08-24T12:59:24.408Z,30.40
2022-08-24T13:02:17.640Z,30.30
2022-08-24T13:04:58.683Z,30.20
2022-08-24T13:07:25.741Z,30.10
2022-08-24T13:09:52.717Z,29.90
2022-08-24T13:12:38.470Z,29.90
2022-08-24T13:15:28.652Z,29.90
2022-08-24T13:18:03.236Z,29.90
2022-08-24T13:20:55.465Z,30.00
2022-08-24T13:23:24.520Z,29.90
2022-08-24T13:26:00.153Z,29.90
2022-08-24T13:28:45.559Z,30.00
2022-08-24T13:31:34.988Z,30.00
2022-08-24T13:34:11.269Z,30.10
2022-08-24T13:36:49.735Z,30.20
2022-08-24T13:40:00.346Z,30.30
2022-08-24T13:43:12.349Z,30.40
2022-08-24T13:46:01.858Z,30.40
2022-08-24T13:49:09.792Z,30.30
2022-08-24T13:52:08.275Z,30.40
2022-08-24T13:55:10.584Z,30.50
2022-08-24T13:58:04.462Z,30.40
2022-08-24T14:01:01.037Z,30.40
2022-08-24T14:03:54.397Z,30.50
2022-08-24T14:06:55.367Z,30.50
2022-08-24T14:09:56.640Z,30.40
2022-08-24T14:12:43.760Z,30.40
2022-08-24T14:15:28.828Z,30.50
2022-08-24T14:18:13.879Z,30.50
2022-08-24T14:21:17.951Z,30.40
2022-08-24T14:23:56.272Z,30.50
2022-08-24T14:26:36.943Z,30.60
2022-08-24T14:29:16.177Z,30.60
2022-08-24T14:32:11.705Z,30.70
2022-08-24T14:34:57.878Z,30.70
2022-08-24T14:38:01.967Z,30.90
2022-08-24T14:40:37.467Z,31.20
2022-08-24T14:43:32.195Z,31.60
2022-08-24T14:46:29.307Z,31.90
2022-08-24T14:49:18.228Z,32.10
2022-08-24T14:52:21.045Z,32.10
2022-08-24T14:55:37.407Z,31.90
2022-08-24T14:58:36.783Z,31.60
2022-08-24T15:01:25.048Z,31.40
2022-08-24T15:04:06.501Z,31.20
2022-08-24T15:06:39.644Z,31.20
2022-08-24T15:09:36.674Z,31.20
2022-08-24T15:12:37.415Z,31.40
2022-08-24T15:15:29.297Z,31.40
2022-08-24T15:18:06.489Z,31.40
2022-08-24T15:21:36.140Z,31.40
2022-08-24T15:24:51.116Z,31.30
2022-08-24T15:27:40.961Z,31.30
2022-08-24T15:30:30.696Z,31.20
2022-08-24T15:33:19.684Z,31.10
2022-08-24T15:36:04.923Z,31.20
2022-08-24T15:38:36.599Z,31.30
2022-08-24T15:41:29.009Z,31.30
2022-08-24T15:44:28.856Z,31.20
2022-08-24T15:47:01.837Z,31.20
2022-08-24T15:49:58.286Z,31.10
2022-08-24T15:52:47.163Z,31.00
2022-08-24T15:55:33.266Z,30.90
2022-08-24T15:58:26.988Z,30.70
2022-08-24T16:01:40.596Z,30.50
2022-08-24T16:04:15.100Z,30.50
2022-08-24T16:06:46.521Z,30.30
2022-08-24T16:09:19.607Z,30.30
2022-08-24T16:12:21.950Z,30.30
2022-08-24T16:15:11.453Z,30.20
2022-08-24T16:17:51.483Z,30.10
2022-08-24T16:20:24.391Z,30.00
2022-08-24T16:26:23.388Z,29.80
2022-08-24T16:28:53.537Z,29.70
2022-08-24T16:31:51.926Z,29.60
2022-08-24T16:34:30.506Z,29.50
2022-08-24T16:36:57.605Z,29.40
2022-08-24T16:39:24.737Z,29.40
2022-08-24T16:41:57.220Z,29.30
2022-08-24T16:44:27.242Z,29.20
2022-08-24T16:46:54.737Z,29.20
2022-08-24T16:49:21.677Z,29.10
2022-08-24T16:51:48.618Z,29.10
2022-08-24T16:54:15.572Z,29.10
2022-08-24T16:56:42.773Z,29.00
2022-08-24T16:59:20.480Z,29.00
2022-08-24T17:01:48.596Z,29.00
2022-08-24T17:04:16.300Z,29.00
2022-08-24T17:06:45.596Z,29.10
2022-08-24T17:09:12.538Z,29.10
2022-08-24T17:11:39.525Z,29.10
2022-08-24T17:14:07.057Z,29.20
2022-08-24T17:16:34.639Z,29.20
2022-08-24T17:19:08.117Z,29.20
2022-08-24T17:21:35.024Z,29.30
2022-08-24T17:24:02.013Z,29.30
2022-08-24T17:26:30.863Z,29.30
2022-08-24T17:28:58.770Z,29.30
2022-08-24T17:31:41.235Z,29.20
2022-08-24T17:34:08.768Z,29.20
2022-08-24T17:36:38.567Z,29.20
2022-08-24T17:39:07.358Z,29.00
2022-08-24T17:41:34.706Z,29.00
2022-08-24T17:44:01.718Z,28.90
2022-08-24T17:46:28.757Z,28.80
2022-08-24T17:48:57.817Z,28.70
2022-08-24T17:51:25.039Z,28.60
2022-08-24T17:53:52.342Z,28.50
2022-08-24T17:56:19.803Z,28.40
2022-08-24T17:59:05.680Z,28.30
2022-08-24T18:01:34.247Z,28.20
2022-08-24T18:04:01.221Z,28.10
2022-08-24T18:06:28.794Z,28.00
2022-08-24T18:08:59.392Z,27.90
2022-08-24T18:11:26.637Z,27.80
2022-08-24T18:13:54.649Z,27.70
2022-08-24T18:16:24.998Z,27.60
2022-08-24T18:18:54.033Z,27.50
2022-08-24T18:21:21.873Z,27.40
2022-08-24T18:23:50.303Z,27.30
2022-08-24T18:26:28.268Z,27.20
2022-08-24T18:29:00.371Z,27.10
2022-08-24T18:31:31.211Z,27.00
2022-08-24T18:33:58.174Z,26.90
2022-08-24T18:36:25.134Z,26.70
2022-08-24T18:38:53.219Z,26.60
2022-08-24T18:41:21.060Z,26.50
2022-08-24T18:43:48.808Z,26.40
2022-08-24T18:46:15.940Z,26.30
2022-08-24T18:48:43.051Z,26.10
2022-08-24T18:51:24.553Z,26.10
2022-08-24T18:54:10.373Z,26.00
2022-08-24T18:59:14.763Z,25.70
2022-08-24T19:02:02.335Z,25.70
2022-08-24T19:04:33.194Z,25.60
2022-08-24T19:07:02.116Z,25.50
2022-08-24T19:09:33.982Z,25.40
2022-08-24T19:12:02.998Z,25.30
2022-08-24T19:14:30.641Z,25.20
2022-08-24T19:16:57.859Z,25.10
2022-08-24T19:19:24.850Z,25.00
2022-08-24T19:21:52.637Z,24.90
2022-08-24T19:24:28.923Z,24.90
2022-08-24T19:26:56.792Z,24.80
2022-08-24T19:29:54.526Z,24.70
2022-08-24T19:32:23.438Z,24.60
2022-08-24T19:34:59.769Z,24.40
2022-08-24T19:37:27.377Z,24.30
2022-08-24T19:39:54.472Z,24.10
2022-08-24T19:42:21.995Z,24.00
2022-08-24T19:45:07.846Z,24.00
2022-08-24T19:47:35.401Z,23.90
2022-08-24T19:50:09.141Z,23.80
2022-08-24T19:52:37.701Z,23.80
2022-08-24T19:55:08.878Z,23.70
2022-08-24T19:57:47.915Z,23.60
2022-08-24T20:00:17.588Z,23.50
2022-08-24T20:02:47.312Z,23.50
2022-08-24T20:05:15.305Z,23.50
2022-08-24T20:07:44.451Z,23.40
2022-08-24T20:10:13.253Z,23.30
2022-08-24T20:12:41.658Z,23.20
2022-08-24T20:15:09.589Z,23.20
2022-08-24T20:17:37.246Z,23.10
2022-08-24T20:20:08.636Z,23.10
2022-08-24T20:22:35.669Z,23.00
2022-08-24T20:25:03.502Z,23.00
2022-08-24T20:27:31.104Z,22.90
2022-08-24T20:29:59.558Z,22.80
2022-08-24T20:32:28.899Z,22.70
2022-08-24T20:34:56.001Z,22.70
2022-08-24T20:37:27.411Z,22.60
2022-08-24T20:39:55.437Z,22.60
2022-08-24T20:42:28.191Z,22.50
2022-08-24T20:44:55.729Z,22.50
2022-08-24T20:47:23.052Z,22.40
2022-08-24T20:49:51.053Z,22.40
2022-08-24T20:52:18.242Z,22.30
2022-08-24T20:54:48.250Z,22.30
2022-08-24T20:57:18.275Z,22.20
2022-08-24T20:59:46.030Z,22.20
2022-08-24T21:02:13.015Z,22.20
2022-08-24T21:04:40.002Z,22.20
2022-08-24T21:07:11.635Z,22.20
2022-08-24T21:09:39.080Z,22.10
2022-08-24T21:12:07.432Z,22.10
2022-08-24T21:14:34.486Z,22.00
2022-08-24T21:17:04.109Z,21.90
2022-08-24T21:19:31.289Z,21.90
2022-08-24T21:21:58.451Z,21.90
2022-08-24T21:24:25.895Z,21.80
2022-08-24T21:26:54.065Z,21.80
2022-08-24T21:29:21.318Z,21.70
2022-08-24T21:32:08.887Z,21.70
2022-08-24T21:34:41.764Z,21.70
2022-08-24T21:37:15.754Z,21.70
2022-08-24T21:39:43.970Z,21.70
2022-08-24T21:42:16.987Z,21.60
2022-08-24T21:44:45.767Z,21.50
2022-08-24T21:47:13.022Z,21.50
2022-08-24T21:49:41.272Z,21.40
2022-08-24T21:52:11.618Z,21.40
2022-08-24T21:54:38.545Z,21.30
2022-08-24T21:57:05.977Z,21.20
2022-08-24T21:59:34.129Z,21.10
2022-08-24T22:02:01.814Z,21.10
2022-08-24T22:04:28.780Z,21.10
2022-08-24T22:06:55.740Z,21.10
2022-08-24T22:09:22.787Z,21.00
2022-08-24T22:11:51.783Z,21.00
2022-08-24T22:14:19.350Z,21.00
2022-08-24T22:16:46.486Z,20.90
2022-08-24T22:19:13.865Z,20.80
2022-08-24T22:21:47.852Z,20.80
2022-08-24T22:24:16.229Z,20.70
2022-08-24T22:26:43.906Z,20.60
2022-08-24T22:29:11.192Z,20.60
2022-08-24T22:31:41.912Z,20.60
2022-08-24T22:34:19.574Z,20.60
2022-08-24T22:36:48.349Z,20.60
2022-08-24T22:39:15.382Z,20.60
2022-08-24T22:41:42.299Z,20.50
2022-08-24T22:44:21.695Z,20.50
2022-08-24T22:46:59.020Z,20.50
2022-08-24T22:49:36.062Z,20.50
2022-08-24T22:52:05.944Z,20.50
2022-08-24T22:54:34.696Z,20.50
2022-08-24T22:57:03.434Z,20.40
2022-08-24T22:59:35.718Z,20.40
2022-08-24T23:02:15.348Z,20.30
2022-08-24T23:04:47.709Z,20.30
2022-08-24T23:07:15.242Z,20.20
2022-08-24T23:09:44.618Z,20.20
2022-08-24T23:12:18.484Z,20.10
2022-08-24T23:14:45.935Z,20.10
2022-08-24T23:17:13.140Z,20.10
2022-08-24T23:19:58.550Z,20.10
2022-08-24T23:22:25.831Z,20.10
2022-08-24T23:24:53.267Z,20.10
2022-08-24T23:27:20.884Z,20.10
2022-08-24T23:29:49.387Z,20.10
2022-08-24T23:32:18.639Z,20.10
2022-08-24T23:34:48.201Z,20.10
2022-08-24T23:37:17.761Z,20.10
2022-08-24T23:39:45.206Z,20.00
2022-08-24T23:42:12.305Z,20.00
2022-08-24T23:44:39.489Z,20.00
2022-08-24T23:47:07.113Z,20.00
2022-08-24T23:49:34.833Z,20.00
2022-08-24T23:52:02.045Z,20.00
2022-08-24T23:54:29.356Z,20.00
2022-08-24T23:56:57.520Z,19.90
2022-08-24T23:59:29.321Z,19.90
